Time;durP1;ratioP1;P1;durP2;ratioP2;P2;SDS_P1;SDS_P2;PMS_P1;PMS_P2;Temp;Humidity;BMP_temperature;BMP_pressure;BME280_temperature;BME280_humidity;BME280_pressure;Samples;Min_cycle;Max_cycle;Signal;HPM_P1;HPM_P2
2021/06/29 00:10:00;;;;;;;2.90;1.20;;;16.80;98.30;;;;;;20568929;27;18696947;-48
2021/06/29 00:20:38;;;;;;;2.90;1.70;;;16.50;98.90;;;;;;21076951;27;20406;-49
2021/06/29 00:31:23;;;;;;;4.68;1.70;;;16.20;99.90;;;;;;21130871;28;20125;-51
2021/06/29 00:42:05;;;;;;;3.08;1.60;;;15.90;99.90;;;;;;21400069;27;19911;-51
2021/06/29 00:52:43;;;;;;;4.25;1.40;;;16.00;99.90;;;;;;21487142;27;20446;-53
2021/06/29 01:03:41;;;;;;;2.13;1.40;;;16.30;99.90;;;;;;21243812;27;20405;-51
2021/06/29 01:14:29;;;;;;;2.33;1.20;;;16.30;99.90;;;;;;21163622;27;20405;-49
2021/06/29 01:25:10;;;;;;;3.85;1.90;;;16.50;99.90;;;;;;21273180;27;20302;-51
2021/06/29 01:35:48;;;;;;;4.72;1.40;;;16.90;99.90;;;;;;21069779;27;20488;-48
2021/06/29 01:46:29;;;;;;;3.40;1.60;;;16.90;99.90;;;;;;21487099;27;20885;-51
2021/06/29 01:57:07;;;;;;;1.70;1.35;;;17.00;99.90;;;;;;21487233;27;20374;-51
2021/06/29 02:07:44;;;;;;;3.17;1.70;;;17.00;99.90;;;;;;21061780;27;20409;-52
2021/06/29 02:18:19;;;;;;;5.18;1.80;;;17.20;99.90;;;;;;21066795;27;20424;-52
2021/06/29 02:28:57;;;;;;;3.33;1.38;;;17.30;99.90;;;;;;21487155;27;20384;-50
2021/06/29 02:39:36;;;;;;;2.58;1.60;;;17.30;99.90;;;;;;21277880;27;20347;-49
2021/06/29 02:50:13;;;;;;;2.95;1.73;;;17.50;99.90;;;;;;21488124;27;20382;-49
2021/06/29 03:00:59;;;;;;;2.53;1.85;;;17.40;99.90;;;;;;21166820;27;20400;-52
2021/06/29 03:11:34;;;;;;;3.58;1.67;;;17.50;99.80;;;;;;21487013;27;20388;-49
2021/06/29 03:22:11;;;;;;;5.85;2.00;;;17.50;99.00;;;;;;21487199;27;20378;-50
2021/06/29 03:32:49;;;;;;;4.07;1.65;;;17.50;99.70;;;;;;21487345;27;20877;-51
2021/06/29 03:43:21;;;;;;;2.42;1.40;;;17.50;99.20;;;;;;21072514;27;20728;-49
2021/06/29 03:53:57;;;;;;;3.53;1.55;;;17.40;99.00;;;;;;21487279;27;20377;-52
2021/06/29 04:04:33;;;;;;;3.35;1.10;;;17.40;98.90;;;;;;21486961;27;20846;-49
2021/06/29 04:15:13;;;;;;;4.07;1.42;;;17.50;97.50;;;;;;21190295;27;20323;-49
2021/06/29 04:25:54;;;;;;;4.28;1.10;;;17.90;96.10;;;;;;21082680;27;20410;-47
2021/06/29 04:35:55;;;;;;;6.63;1.25;;;18.10;96.30;;;;;;21058056;28;20048;-53
2021/06/29 04:46:35;;;;;;;2.58;1.15;;;18.20;96.10;;;;;;21081943;27;20751;-52
2021/06/29 04:57:18;;;;;;;2.38;1.30;;;17.90;95.50;;;;;;21137838;28;20827;-52
2021/06/29 05:07:56;;;;;;;4.55;1.13;;;17.60;96.80;;;;;;21270434;27;20304;-49
2021/06/29 05:18:27;;;;;;;2.15;1.25;;;17.30;96.80;;;;;;21072258;27;20497;-52
2021/06/29 05:29:20;;;;;;;7.70;1.20;;;16.80;98.50;;;;;;21060372;27;20123;-51
2021/06/29 05:40:04;;;;;;;2.88;1.17;;;16.50;98.30;;;;;;21121119;27;20903;-50
2021/06/29 05:50:42;;;;;;;11.50;1.50;;;16.80;97.80;;;;;;21486908;27;20407;-51
2021/06/29 06:01:22;;;;;;;5.47;1.58;;;16.90;98.80;;;;;;21192750;27;20298;-47
2021/06/29 06:11:57;;;;;;;10.98;1.88;;;18.10;96.70;;;;;;21483118;27;20393;-50
2021/06/29 06:22:34;;;;;;;14.10;0.90;;;21.80;91.80;;;;;;21068755;27;20409;-54
2021/06/29 06:33:16;;;;;;;3.22;1.23;;;24.10;87.40;;;;;;21487009;27;20692;-54
2021/06/29 06:43:54;;;;;;;2.33;1.17;;;;;;;;;;21487205;27;20382;-51
2021/06/29 06:54:33;;;;;;;4.63;2.13;;;30.50;72.70;;;;;;21270443;27;20293;-50
2021/06/29 07:05:10;;;;;;;2.60;1.90;;;32.80;63.20;;;;;;21071205;27;20902;-49
2021/06/29 07:15:43;;;;;;;2.50;2.30;;;33.00;62.60;;;;;;21071532;27;20507;-50
2021/06/29 07:26:15;;;;;;;2.45;2.25;;;33.40;57.40;;;;;;21071198;27;20917;-53
2021/06/29 07:36:36;;;;;;;4.03;1.98;;;33.40;57.40;;;;;;21189646;27;20132;-54
2021/06/29 07:46:58;;;;;;;2.95;2.33;;;33.20;57.20;;;;;;21186144;27;20378;-54
2021/06/29 07:57:17;;;;;;;5.15;2.28;;;33.20;57.70;;;;;;21185241;27;20682;-51
2021/06/29 08:07:38;;;;;;;4.97;2.30;;;32.60;56.70;;;;;;21192922;27;20112;-53
2021/06/29 08:17:59;;;;;;;4.35;2.40;;;32.00;61.50;;;;;;21145812;27;20717;-50
2021/06/29 08:28:20;;;;;;;4.22;2.60;;;31.70;63.20;;;;;;20975210;28;20389;-54
2021/06/29 08:38:42;;;;;;;2.72;2.47;;;31.40;60.60;;;;;;21228604;27;20140;-50
2021/06/29 08:49:04;;;;;;;1.83;1.73;;;30.70;62.30;;;;;;21191268;27;20104;-52
2021/06/29 08:59:22;;;;;;;2.50;1.60;;;29.80;62.00;;;;;;21059496;28;20389;-53
2021/06/29 09:10:03;;;;;;;2.85;1.70;;;29.30;64.10;;;;;;20975873;28;20383;-53
2021/06/29 09:20:31;;;;;;;3.22;1.55;;;29.90;63.40;;;;;;21190921;27;20379;-53
2021/06/29 09:30:56;;;;;;;3.33;1.90;;;30.30;64.90;;;;;;21143528;27;20376;-54
2021/06/29 09:41:20;;;;;;;4.38;2.03;;;29.60;65.60;;;;;;21187435;27;20374;-52
2021/06/29 09:51:49;;;;;;;3.10;1.90;;;28.40;65.20;;;;;;21143457;27;20388;-54
2021/06/29 10:02:11;;;;;;;3.10;1.88;;;28.20;70.30;;;;;;21191036;27;20103;-50
2021/06/29 10:12:32;;;;;;;3.13;1.65;;;29.70;66.80;;;;;;20975488;28;20141;-53
2021/06/29 10:22:53;;;;;;;7.60;1.80;;;29.50;66.20;;;;;;21187544;27;20382;-52
2021/06/29 10:33:14;;;;;;;8.15;2.17;;;28.70;69.10;;;;;;21337582;27;20159;-51
2021/06/29 10:43:37;;;;;;;1.88;1.10;;;29.40;67.40;;;;;;20634258;28;21087;-48
2021/06/29 10:53:58;;;;;;;5.55;1.38;;;30.20;62.40;;;;;;21145853;27;20125;-51
2021/06/29 11:04:47;;;;;;;8.70;1.23;;;29.70;58.50;;;;;;21366722;27;20135;-52
2021/06/29 11:15:10;;;;;;;4.20;1.05;;;29.40;58.90;;;;;;21143629;27;20390;-48
2021/06/29 11:25:50;;;;;;;2.58;0.93;;;29.50;57.40;;;;;;21228578;27;20378;-51
2021/06/29 11:47:06;;;;;;;3.53;1.17;;;28.40;65.30;;;;;;20975662;28;20382;-53
2021/06/29 11:57:39;;;;;;;5.43;1.50;;;28.90;63.60;;;;;;21059056;28;20392;-52
2021/06/29 12:08:04;;;;;;;3.47;1.00;;;29.30;57.70;;;;;;21272834;27;20385;-50
2021/06/29 12:18:29;;;;;;;6.68;1.35;;;29.10;58.10;;;;;;21058864;28;20388;-53
2021/06/29 12:28:49;;;;;;;3.05;1.17;;;29.30;60.70;;;;;;21188377;27;20930;-52
2021/06/29 12:39:07;;;;;;;4.30;1.33;;;29.50;60.20;;;;;;21059420;28;20387;-54
2021/06/29 12:49:27;;;;;;;4.18;1.50;;;30.20;58.70;;;;;;21190838;27;20096;-50
2021/06/29 12:59:47;;;;;;;5.72;1.58;;;30.60;60.00;;;;;;21143620;27;20384;-50
2021/06/29 13:10:09;;;;;;;4.10;1.65;;;29.90;60.10;;;;;;21024364;28;20883;-51
2021/06/29 13:20:29;;;;;;;10.13;2.63;;;29.70;61.40;;;;;;21186931;27;20385;-52
2021/06/29 13:31:00;;;;;;;5.03;1.58;;;28.90;63.20;;;;;;21192506;27;20103;-50
2021/06/29 13:41:35;;;;;;;5.80;1.50;;;28.00;66.20;;;;;;21059158;28;20376;-53
2021/06/29 13:52:06;;;;;;;7.65;1.98;;;28.20;65.30;;;;;;20757303;28;20390;-54
2021/06/29 14:02:30;;;;;;;8.05;2.05;;;28.20;64.40;;;;;;21363465;27;20492;-54
2021/06/29 14:12:59;;;;;;;5.60;1.10;;;26.80;64.50;;;;;;21059127;27;20134;-48
2021/06/29 14:23:20;;;;;;;7.85;1.65;;;28.10;62.90;;;;;;21187578;27;20294;-50
2021/06/29 14:33:42;;;;;;;8.48;1.50;;;27.40;61.00;;;;;;21357454;27;20285;-53
2021/06/29 14:44:04;;;;;;;6.65;1.33;;;26.10;65.20;;;;;;20975694;28;20135;-55
2021/06/29 14:54:27;;;;;;;2.88;1.60;;;27.20;65.50;;;;;;21192755;27;20835;-53
2021/06/29 15:04:47;;;;;;;4.53;1.30;;;27.40;63.20;;;;;;21059408;28;20382;-54
2021/06/29 15:15:14;;;;;;;9.93;1.63;;;26.50;64.10;;;;;;20975728;28;20397;-54
2021/06/29 15:25:36;;;;;;;6.95;1.75;;;25.50;68.00;;;;;;20975828;28;20757;-53
2021/06/29 15:35:58;;;;;;;7.32;1.80;;;26.90;67.30;;;;;;21189502;27;20290;-53
2021/06/29 15:46:19;;;;;;;18.15;1.77;;;28.70;63.20;;;;;;21360290;27;20331;-52
2021/06/29 15:56:41;;;;;;;4.55;1.85;;;29.70;59.60;;;;;;21187489;27;20375;-54
2021/06/29 16:07:03;;;;;;;3.22;0.70;;;29.70;58.10;;;;;;21361738;27;20397;-48
2021/06/29 16:17:27;;;;;;;1.65;1.00;;;26.90;57.60;;;;;;21143148;27;20133;-53
2021/06/29 16:27:48;;;;;;;3.38;0.80;;;25.70;60.70;;;;;;20975385;28;20896;-48
2021/06/29 16:38:09;;;;;;;2.25;0.70;;;24.50;62.70;;;;;;20756937;28;20385;-51
2021/06/29 16:48:31;;;;;;;3.38;0.90;;;24.00;65.90;;;;;;20975288;27;20415;-50
2021/06/29 16:58:53;;;;;;;2.60;0.77;;;23.70;63.50;;;;;;21363938;27;20113;-55
2021/06/29 17:09:15;;;;;;;2.92;0.75;;;21.50;67.70;;;;;;21340603;27;20381;-59
2021/06/29 17:19:36;;;;;;;2.58;0.93;;;20.40;72.40;;;;;;20975003;28;20741;-60
2021/06/29 17:29:58;;;;;;;3.75;0.98;;;19.20;74.70;;;;;;21358595;27;20601;-60
2021/06/29 17:40:20;;;;;;;1.65;0.70;;;18.40;75.20;;;;;;21185366;27;20120;-60
2021/06/29 17:50:44;;;;;;;2.67;0.75;;;17.90;73.80;;;;;;21187484;27;20383;-58
2021/06/29 18:01:05;;;;;;;3.28;0.80;;;17.50;75.30;;;;;;20976665;27;20386;-57
2021/06/29 18:11:24;;;;;;;1.35;0.82;;;17.30;75.20;;;;;;21190328;27;20510;-60
2021/06/29 18:21:44;;;;;;;6.18;1.40;;;17.00;83.10;;;;;;20975425;28;20613;-57
2021/06/29 18:32:02;;;;;;;4.90;1.83;;;16.80;88.20;;;;;;21108741;27;20513;-57
2021/06/29 18:42:26;;;;;;;4.45;1.15;;;16.50;90.90;;;;;;20978175;28;20422;-60
2021/06/29 18:52:51;;;;;;;2.92;1.27;;;16.30;89.70;;;;;;21364318;27;20300;-60
2021/06/29 19:03:13;;;;;;;1.98;0.80;;;16.30;90.30;;;;;;21228197;27;20096;-60
2021/06/29 19:13:36;;;;;;;2.83;0.98;;;16.30;88.90;;;;;;21364575;27;20125;-60
2021/06/29 19:23:58;;;;;;;1.98;1.33;;;16.20;86.70;;;;;;21341103;27;20010;-60
2021/06/29 19:34:18;;;;;;;2.80;0.85;;;15.70;88.90;;;;;;20975483;28;20132;-60
2021/06/29 19:44:39;;;;;;;;;;;15.30;90.50;;;;;;20975872;28;20389;-59
2021/06/29 19:55:01;;;;;;;;;;;15.10;91.20;;;;;;21191653;27;20435;-60
2021/06/29 20:05:22;;;;;;;;;;;15.20;91.40;;;;;;21143325;27;1568583;-58
2021/06/29 20:15:42;;;;;;;;;;;15.10;91.60;;;;;;20943114;28;20393;-60
2021/06/29 20:26:07;;;;;;;;;;;15.10;91.30;;;;;;21368702;27;20408;-60
2021/06/29 20:36:28;;;;;;;;;;;15.20;90.60;;;;;;21059952;28;20739;-60
2021/06/29 20:46:49;;;;;;;;;;;15.30;91.40;;;;;;20976107;27;20382;-56
2021/06/29 20:57:11;;;;;;;3.10;0.98;;;14.70;92.30;;;;;;21279713;27;20115;-58
2021/06/29 21:07:36;;;;;;;2.95;1.00;;;14.40;93.50;;;;;;21278537;27;20495;-55
2021/06/29 21:17:58;;;;;;;3.90;1.35;;;13.90;95.00;;;;;;21365480;27;20293;-50
2021/06/29 21:28:22;;;;;;;3.13;1.38;;;13.70;96.40;;;;;;21059289;27;20394;-49
2021/06/29 21:38:44;;;;;;;3.22;1.25;;;13.70;97.40;;;;;;21355893;27;20304;-51
2021/06/29 21:49:05;;;;;;;2.35;1.25;;;13.90;98.40;;;;;;21104727;28;20741;-49
2021/06/29 21:59:27;;;;;;;6.03;1.70;;;13.80;99.30;;;;;;21188139;27;20635;-51
2021/06/29 22:09:51;;;;;;;8.93;1.65;;;13.70;99.80;;;;;;21228527;27;20413;-51
2021/06/29 22:20:11;;;;;;;4.32;1.80;;;13.80;99.90;;;;;;21143594;27;20380;-50
2021/06/29 22:30:31;;;;;;;3.35;1.85;;;14.00;99.90;;;;;;21358341;27;20110;-49
2021/06/29 22:40:52;;;;;;;3.42;2.13;;;14.00;99.90;;;;;;21324569;27;20744;-47
2021/06/29 22:51:12;;;;;;;3.50;1.80;;;14.00;99.90;;;;;;20975683;28;20379;-52
2021/06/29 23:01:33;;;;;;;7.78;2.30;;;14.00;99.90;;;;;;20975806;28;20870;-50
2021/06/29 23:11:57;;;;;;;3.67;1.90;;;13.80;99.90;;;;;;20975649;28;20383;-48
2021/06/29 23:22:17;;;;;;;4.57;2.00;;;13.70;99.90;;;;;;21059483;28;20374;-50
2021/06/29 23:32:38;;;;;;;4.85;2.00;;;13.80;99.90;;;;;;21340010;27;20380;-49
2021/06/29 23:42:57;;;;;;;6.22;2.42;;;13.60;99.90;;;;;;20976054;28;20393;-48
2021/06/29 23:53:18;;;;;;;6.95;2.30;;;13.70;99.90;;;;;;21189463;27;20101;-50
